sensor_id;sensor_type;location;lat;lon;timestamp;P1;durP1;ratioP1;P2;durP2;ratioP2
17201;SDS011;8717;53.588;10.176;2023-06-14T00:01:59;3.60;;;2.73;;
17201;SDS011;8717;53.588;10.176;2023-06-14T00:04:26;4.60;;;2.80;;
17201;SDS011;8717;53.588;10.176;2023-06-14T00:06:54;6.00;;;3.03;;
17201;SDS011;8717;53.588;10.176;2023-06-14T00:09:21;4.60;;;2.20;;
17201;SDS011;8717;53.588;10.176;2023-06-14T00:11:48;4.27;;;2.50;;
17201;SDS011;8717;53.588;10.176;2023-06-14T00:14:17;3.00;;;2.33;;
17201;SDS011;8717;53.588;10.176;2023-06-14T00:16:44;4.03;;;2.40;;
17201;SDS011;8717;53.588;10.176;2023-06-14T00:19:10;4.87;;;2.97;;
17201;SDS011;8717;53.588;10.176;2023-06-14T00:21:37;4.43;;;2.63;;
17201;SDS011;8717;53.588;10.176;2023-06-14T00:24:05;4.20;;;2.50;;
17201;SDS011;8717;53.588;10.176;2023-06-14T00:26:31;5.23;;;2.37;;
17201;SDS011;8717;53.588;10.176;2023-06-14T00:28:58;3.10;;;2.53;;
17201;SDS011;8717;53.588;10.176;2023-06-14T00:31:29;8.33;;;2.80;;
17201;SDS011;8717;53.588;10.176;2023-06-14T00:33:56;4.90;;;2.57;;
17201;SDS011;8717;53.588;10.176;2023-06-14T00:36:22;4.67;;;2.57;;
17201;SDS011;8717;53.588;10.176;2023-06-14T00:38:49;4.63;;;2.73;;
17201;SDS011;8717;53.588;10.176;2023-06-14T00:41:16;4.73;;;2.53;;
17201;SDS011;8717;53.588;10.176;2023-06-14T00:43:42;5.10;;;2.73;;
17201;SDS011;8717;53.588;10.176;2023-06-14T00:46:09;5.97;;;3.20;;
17201;SDS011;8717;53.588;10.176;2023-06-14T00:48:37;5.37;;;2.90;;
17201;SDS011;8717;53.588;10.176;2023-06-14T00:51:05;6.77;;;3.00;;
17201;SDS011;8717;53.588;10.176;2023-06-14T00:53:32;4.17;;;2.40;;
17201;SDS011;8717;53.588;10.176;2023-06-14T00:56:00;4.23;;;2.80;;
17201;SDS011;8717;53.588;10.176;2023-06-14T00:58:27;6.47;;;3.20;;
17201;SDS011;8717;53.588;10.176;2023-06-14T01:00:54;7.87;;;3.10;;
17201;SDS011;8717;53.588;10.176;2023-06-14T01:03:22;4.47;;;2.60;;
17201;SDS011;8717;53.588;10.176;2023-06-14T01:05:53;5.00;;;2.63;;
17201;SDS011;8717;53.588;10.176;2023-06-14T01:08:28;3.37;;;2.70;;
17201;SDS011;8717;53.588;10.176;2023-06-14T01:11:05;3.13;;;2.60;;
17201;SDS011;8717;53.588;10.176;2023-06-14T01:13:38;3.60;;;2.30;;
17201;SDS011;8717;53.588;10.176;2023-06-14T01:16:06;6.00;;;3.03;;
17201;SDS011;8717;53.588;10.176;2023-06-14T01:18:34;4.17;;;2.93;;
17201;SDS011;8717;53.588;10.176;2023-06-14T01:21:03;4.27;;;2.60;;
17201;SDS011;8717;53.588;10.176;2023-06-14T01:23:32;3.70;;;2.70;;
17201;SDS011;8717;53.588;10.176;2023-06-14T01:25:59;4.73;;;3.13;;
17201;SDS011;8717;53.588;10.176;2023-06-14T01:28:30;4.73;;;2.50;;
17201;SDS011;8717;53.588;10.176;2023-06-14T01:31:00;4.73;;;2.70;;
17201;SDS011;8717;53.588;10.176;2023-06-14T01:33:29;4.70;;;2.97;;
17201;SDS011;8717;53.588;10.176;2023-06-14T01:35:58;4.00;;;2.73;;
17201;SDS011;8717;53.588;10.176;2023-06-14T01:38:29;6.47;;;3.10;;
17201;SDS011;8717;53.588;10.176;2023-06-14T01:40:58;7.67;;;2.90;;
17201;SDS011;8717;53.588;10.176;2023-06-14T01:43:27;4.63;;;3.27;;
17201;SDS011;8717;53.588;10.176;2023-06-14T01:45:57;5.50;;;3.30;;
17201;SDS011;8717;53.588;10.176;2023-06-14T01:48:26;6.27;;;2.77;;
17201;SDS011;8717;53.588;10.176;2023-06-14T01:50:53;4.10;;;2.90;;
17201;SDS011;8717;53.588;10.176;2023-06-14T01:53:20;7.30;;;3.10;;
17201;SDS011;8717;53.588;10.176;2023-06-14T01:55:47;5.23;;;3.00;;
17201;SDS011;8717;53.588;10.176;2023-06-14T01:58:16;5.70;;;2.90;;
17201;SDS011;8717;53.588;10.176;2023-06-14T02:00:43;4.30;;;3.10;;
17201;SDS011;8717;53.588;10.176;2023-06-14T02:03:10;4.40;;;2.77;;
17201;SDS011;8717;53.588;10.176;2023-06-14T02:05:38;6.70;;;3.00;;
17201;SDS011;8717;53.588;10.176;2023-06-14T02:08:05;7.37;;;3.47;;
17201;SDS011;8717;53.588;10.176;2023-06-14T02:10:33;7.20;;;3.57;;
17201;SDS011;8717;53.588;10.176;2023-06-14T02:13:00;3.97;;;2.83;;
17201;SDS011;8717;53.588;10.176;2023-06-14T02:15:28;7.30;;;3.57;;
17201;SDS011;8717;53.588;10.176;2023-06-14T02:17:59;6.93;;;3.67;;
17201;SDS011;8717;53.588;10.176;2023-06-14T02:20:27;6.67;;;3.20;;
17201;SDS011;8717;53.588;10.176;2023-06-14T02:22:56;5.77;;;3.20;;
17201;SDS011;8717;53.588;10.176;2023-06-14T02:25:23;5.83;;;3.20;;
17201;SDS011;8717;53.588;10.176;2023-06-14T02:27:52;8.60;;;3.30;;
17201;SDS011;8717;53.588;10.176;2023-06-14T02:30:19;6.77;;;3.33;;
17201;SDS011;8717;53.588;10.176;2023-06-14T02:32:47;6.53;;;2.97;;
17201;SDS011;8717;53.588;10.176;2023-06-14T02:35:16;5.00;;;3.57;;
17201;SDS011;8717;53.588;10.176;2023-06-14T02:37:43;7.53;;;3.60;;
17201;SDS011;8717;53.588;10.176;2023-06-14T02:40:09;7.07;;;3.90;;
17201;SDS011;8717;53.588;10.176;2023-06-14T02:42:37;6.10;;;3.50;;
17201;SDS011;8717;53.588;10.176;2023-06-14T02:45:04;5.47;;;3.60;;
17201;SDS011;8717;53.588;10.176;2023-06-14T02:47:32;6.53;;;3.40;;
17201;SDS011;8717;53.588;10.176;2023-06-14T02:50:00;6.43;;;3.60;;
17201;SDS011;8717;53.588;10.176;2023-06-14T02:52:27;5.10;;;3.13;;
17201;SDS011;8717;53.588;10.176;2023-06-14T02:54:55;5.63;;;3.53;;
17201;SDS011;8717;53.588;10.176;2023-06-14T02:57:22;5.60;;;3.30;;
17201;SDS011;8717;53.588;10.176;2023-06-14T02:59:49;5.47;;;3.33;;
17201;SDS011;8717;53.588;10.176;2023-06-14T03:02:17;5.50;;;3.53;;
17201;SDS011;8717;53.588;10.176;2023-06-14T03:04:44;7.50;;;3.90;;
17201;SDS011;8717;53.588;10.176;2023-06-14T03:07:15;9.43;;;3.90;;
17201;SDS011;8717;53.588;10.176;2023-06-14T03:09:45;6.87;;;3.30;;
17201;SDS011;8717;53.588;10.176;2023-06-14T03:12:14;9.53;;;3.77;;
17201;SDS011;8717;53.588;10.176;2023-06-14T03:14:41;5.83;;;3.63;;
17201;SDS011;8717;53.588;10.176;2023-06-14T03:17:12;5.03;;;3.63;;
17201;SDS011;8717;53.588;10.176;2023-06-14T03:19:40;6.33;;;3.57;;
17201;SDS011;8717;53.588;10.176;2023-06-14T03:22:07;5.47;;;3.53;;
17201;SDS011;8717;53.588;10.176;2023-06-14T03:24:39;6.27;;;3.77;;
17201;SDS011;8717;53.588;10.176;2023-06-14T03:27:11;8.10;;;3.70;;
17201;SDS011;8717;53.588;10.176;2023-06-14T03:29:42;4.97;;;3.43;;
17201;SDS011;8717;53.588;10.176;2023-06-14T03:32:10;5.90;;;3.73;;
17201;SDS011;8717;53.588;10.176;2023-06-14T03:34:40;4.67;;;3.33;;
17201;SDS011;8717;53.588;10.176;2023-06-14T03:37:13;7.17;;;3.67;;
17201;SDS011;8717;53.588;10.176;2023-06-14T03:39:41;7.23;;;3.87;;
17201;SDS011;8717;53.588;10.176;2023-06-14T03:42:13;9.70;;;4.07;;
17201;SDS011;8717;53.588;10.176;2023-06-14T03:44:41;7.27;;;3.90;;
17201;SDS011;8717;53.588;10.176;2023-06-14T03:47:09;6.07;;;3.67;;
17201;SDS011;8717;53.588;10.176;2023-06-14T03:49:36;4.53;;;3.50;;
17201;SDS011;8717;53.588;10.176;2023-06-14T03:52:03;7.40;;;3.60;;
17201;SDS011;8717;53.588;10.176;2023-06-14T03:54:31;8.00;;;3.57;;
17201;SDS011;8717;53.588;10.176;2023-06-14T03:57:00;6.90;;;3.37;;
17201;SDS011;8717;53.588;10.176;2023-06-14T03:59:27;6.13;;;3.97;;
17201;SDS011;8717;53.588;10.176;2023-06-14T04:01:55;6.37;;;3.63;;
17201;SDS011;8717;53.588;10.176;2023-06-14T04:04:22;6.83;;;3.90;;
17201;SDS011;8717;53.588;10.176;2023-06-14T04:06:55;8.70;;;3.60;;
17201;SDS011;8717;53.588;10.176;2023-06-14T04:09:24;7.77;;;3.87;;
17201;SDS011;8717;53.588;10.176;2023-06-14T04:11:51;7.30;;;3.80;;
17201;SDS011;8717;53.588;10.176;2023-06-14T04:14:20;10.63;;;4.90;;
17201;SDS011;8717;53.588;10.176;2023-06-14T04:16:47;7.10;;;3.97;;
17201;SDS011;8717;53.588;10.176;2023-06-14T04:19:16;6.23;;;3.93;;
17201;SDS011;8717;53.588;10.176;2023-06-14T04:21:43;7.03;;;3.27;;
17201;SDS011;8717;53.588;10.176;2023-06-14T04:24:11;4.40;;;3.50;;
17201;SDS011;8717;53.588;10.176;2023-06-14T04:26:39;11.10;;;4.00;;
17201;SDS011;8717;53.588;10.176;2023-06-14T04:29:10;8.27;;;3.77;;
17201;SDS011;8717;53.588;10.176;2023-06-14T04:31:42;4.87;;;3.53;;
17201;SDS011;8717;53.588;10.176;2023-06-14T04:34:10;5.37;;;3.53;;
17201;SDS011;8717;53.588;10.176;2023-06-14T04:36:45;6.23;;;3.40;;
17201;SDS011;8717;53.588;10.176;2023-06-14T04:39:14;7.90;;;3.67;;
17201;SDS011;8717;53.588;10.176;2023-06-14T04:41:42;9.47;;;4.13;;
17201;SDS011;8717;53.588;10.176;2023-06-14T04:44:10;6.20;;;4.03;;
17201;SDS011;8717;53.588;10.176;2023-06-14T04:46:43;8.10;;;4.23;;
17201;SDS011;8717;53.588;10.176;2023-06-14T04:49:14;7.13;;;4.27;;
17201;SDS011;8717;53.588;10.176;2023-06-14T04:51:42;6.23;;;3.90;;
17201;SDS011;8717;53.588;10.176;2023-06-14T04:54:08;7.53;;;3.77;;
17201;SDS011;8717;53.588;10.176;2023-06-14T04:56:39;7.27;;;3.93;;
17201;SDS011;8717;53.588;10.176;2023-06-14T04:59:07;5.57;;;3.50;;
17201;SDS011;8717;53.588;10.176;2023-06-14T05:01:36;5.73;;;4.00;;
17201;SDS011;8717;53.588;10.176;2023-06-14T05:04:04;5.70;;;3.80;;
17201;SDS011;8717;53.588;10.176;2023-06-14T05:06:31;4.53;;;3.57;;
17201;SDS011;8717;53.588;10.176;2023-06-14T05:08:58;6.33;;;3.57;;
17201;SDS011;8717;53.588;10.176;2023-06-14T05:11:25;8.53;;;3.90;;
17201;SDS011;8717;53.588;10.176;2023-06-14T05:13:52;7.23;;;3.57;;
17201;SDS011;8717;53.588;10.176;2023-06-14T05:16:19;5.53;;;3.60;;
17201;SDS011;8717;53.588;10.176;2023-06-14T05:18:50;7.40;;;3.80;;
17201;SDS011;8717;53.588;10.176;2023-06-14T05:21:18;7.60;;;4.10;;
17201;SDS011;8717;53.588;10.176;2023-06-14T05:23:45;7.27;;;4.10;;
17201;SDS011;8717;53.588;10.176;2023-06-14T05:26:12;5.47;;;3.90;;
17201;SDS011;8717;53.588;10.176;2023-06-14T05:28:39;7.60;;;3.90;;
17201;SDS011;8717;53.588;10.176;2023-06-14T05:31:06;8.33;;;4.00;;
17201;SDS011;8717;53.588;10.176;2023-06-14T05:33:33;6.47;;;3.77;;
17201;SDS011;8717;53.588;10.176;2023-06-14T05:36:00;5.80;;;3.40;;
17201;SDS011;8717;53.588;10.176;2023-06-14T05:38:28;5.15;;;3.38;;
17201;SDS011;8717;53.588;10.176;2023-06-14T05:40:55;5.17;;;3.00;;
17201;SDS011;8717;53.588;10.176;2023-06-14T05:43:22;6.63;;;3.67;;
17201;SDS011;8717;53.588;10.176;2023-06-14T05:45:49;7.00;;;3.23;;
17201;SDS011;8717;53.588;10.176;2023-06-14T05:48:16;5.13;;;3.20;;
17201;SDS011;8717;53.588;10.176;2023-06-14T05:50:43;7.03;;;3.57;;
17201;SDS011;8717;53.588;10.176;2023-06-14T05:53:10;3.97;;;3.10;;
17201;SDS011;8717;53.588;10.176;2023-06-14T05:55:38;7.10;;;2.80;;
17201;SDS011;8717;53.588;10.176;2023-06-14T05:58:05;4.32;;;2.92;;
17201;SDS011;8717;53.588;10.176;2023-06-14T06:00:32;4.97;;;3.17;;
17201;SDS011;8717;53.588;10.176;2023-06-14T06:02:59;6.53;;;3.30;;
17201;SDS011;8717;53.588;10.176;2023-06-14T06:05:26;3.83;;;3.17;;
17201;SDS011;8717;53.588;10.176;2023-06-14T06:07:52;4.63;;;2.80;;
17201;SDS011;8717;53.588;10.176;2023-06-14T06:10:19;6.00;;;3.08;;
17201;SDS011;8717;53.588;10.176;2023-06-14T06:12:47;3.92;;;2.92;;
17201;SDS011;8717;53.588;10.176;2023-06-14T06:15:17;4.35;;;3.00;;
17201;SDS011;8717;53.588;10.176;2023-06-14T06:17:43;5.90;;;2.58;;
17201;SDS011;8717;53.588;10.176;2023-06-14T06:20:11;4.80;;;2.70;;
17201;SDS011;8717;53.588;10.176;2023-06-14T06:22:38;4.38;;;2.67;;
17201;SDS011;8717;53.588;10.176;2023-06-14T06:25:05;4.80;;;3.20;;
17201;SDS011;8717;53.588;10.176;2023-06-14T06:27:33;6.28;;;2.90;;
17201;SDS011;8717;53.588;10.176;2023-06-14T06:30:02;5.65;;;3.35;;
17201;SDS011;8717;53.588;10.176;2023-06-14T06:32:29;5.35;;;2.90;;
17201;SDS011;8717;53.588;10.176;2023-06-14T06:34:56;5.22;;;3.00;;
17201;SDS011;8717;53.588;10.176;2023-06-14T06:37:24;3.45;;;2.30;;
17201;SDS011;8717;53.588;10.176;2023-06-14T06:39:51;7.45;;;2.70;;
17201;SDS011;8717;53.588;10.176;2023-06-14T06:42:18;5.68;;;2.75;;
17201;SDS011;8717;53.588;10.176;2023-06-14T06:44:48;5.15;;;2.00;;
17201;SDS011;8717;53.588;10.176;2023-06-14T06:47:16;4.32;;;2.45;;
17201;SDS011;8717;53.588;10.176;2023-06-14T06:49:43;4.57;;;2.20;;
17201;SDS011;8717;53.588;10.176;2023-06-14T06:52:10;2.85;;;2.10;;
17201;SDS011;8717;53.588;10.176;2023-06-14T06:54:37;3.30;;;2.42;;
17201;SDS011;8717;53.588;10.176;2023-06-14T06:57:03;4.32;;;2.22;;
17201;SDS011;8717;53.588;10.176;2023-06-14T06:59:31;3.05;;;2.00;;
17201;SDS011;8717;53.588;10.176;2023-06-14T07:01:58;3.22;;;2.10;;
17201;SDS011;8717;53.588;10.176;2023-06-14T07:04:26;3.05;;;2.00;;
17201;SDS011;8717;53.588;10.176;2023-06-14T07:06:52;3.05;;;1.90;;
17201;SDS011;8717;53.588;10.176;2023-06-14T07:09:19;2.13;;;1.90;;
17201;SDS011;8717;53.588;10.176;2023-06-14T07:11:46;4.18;;;2.20;;
17201;SDS011;8717;53.588;10.176;2023-06-14T07:14:13;4.00;;;1.80;;
17201;SDS011;8717;53.588;10.176;2023-06-14T07:16:40;2.78;;;2.00;;
17201;SDS011;8717;53.588;10.176;2023-06-14T07:19:08;2.25;;;1.60;;
17201;SDS011;8717;53.588;10.176;2023-06-14T07:21:36;2.50;;;1.70;;
17201;SDS011;8717;53.588;10.176;2023-06-14T07:24:04;2.60;;;1.80;;
17201;SDS011;8717;53.588;10.176;2023-06-14T07:26:31;2.17;;;1.98;;
17201;SDS011;8717;53.588;10.176;2023-06-14T07:28:58;2.97;;;1.73;;
17201;SDS011;8717;53.588;10.176;2023-06-14T07:31:24;3.08;;;1.92;;
17201;SDS011;8717;53.588;10.176;2023-06-14T07:33:51;1.90;;;1.70;;
17201;SDS011;8717;53.588;10.176;2023-06-14T07:36:18;3.83;;;1.90;;
17201;SDS011;8717;53.588;10.176;2023-06-14T07:38:46;3.55;;;1.98;;
17201;SDS011;8717;53.588;10.176;2023-06-14T07:41:13;2.85;;;1.80;;
17201;SDS011;8717;53.588;10.176;2023-06-14T07:43:40;2.22;;;1.95;;
17201;SDS011;8717;53.588;10.176;2023-06-14T07:46:07;2.08;;;1.77;;
17201;SDS011;8717;53.588;10.176;2023-06-14T07:48:34;2.20;;;1.92;;
17201;SDS011;8717;53.588;10.176;2023-06-14T07:51:00;5.18;;;2.05;;
17201;SDS011;8717;53.588;10.176;2023-06-14T07:53:27;2.20;;;1.85;;
17201;SDS011;8717;53.588;10.176;2023-06-14T07:55:57;2.78;;;1.90;;
17201;SDS011;8717;53.588;10.176;2023-06-14T07:58:23;2.15;;;1.67;;
17201;SDS011;8717;53.588;10.176;2023-06-14T08:00:50;3.28;;;1.90;;
17201;SDS011;8717;53.588;10.176;2023-06-14T08:03:17;2.13;;;1.75;;
17201;SDS011;8717;53.588;10.176;2023-06-14T08:05:44;3.00;;;1.92;;
17201;SDS011;8717;53.588;10.176;2023-06-14T08:08:11;4.43;;;1.70;;
17201;SDS011;8717;53.588;10.176;2023-06-14T08:10:38;4.95;;;1.90;;
17201;SDS011;8717;53.588;10.176;2023-06-14T08:13:06;5.45;;;2.35;;
17201;SDS011;8717;53.588;10.176;2023-06-14T08:15:34;3.47;;;2.03;;
17201;SDS011;8717;53.588;10.176;2023-06-14T08:18:00;3.40;;;2.17;;
17201;SDS011;8717;53.588;10.176;2023-06-14T08:20:27;4.50;;;2.10;;
17201;SDS011;8717;53.588;10.176;2023-06-14T08:22:55;4.40;;;2.03;;
17201;SDS011;8717;53.588;10.176;2023-06-14T08:25:22;2.88;;;2.17;;
17201;SDS011;8717;53.588;10.176;2023-06-14T08:27:48;3.22;;;1.95;;
17201;SDS011;8717;53.588;10.176;2023-06-14T08:30:16;5.07;;;2.50;;
17201;SDS011;8717;53.588;10.176;2023-06-14T08:32:43;5.13;;;2.50;;
17201;SDS011;8717;53.588;10.176;2023-06-14T08:35:10;2.42;;;1.88;;
17201;SDS011;8717;53.588;10.176;2023-06-14T08:37:40;4.93;;;2.20;;
17201;SDS011;8717;53.588;10.176;2023-06-14T08:40:12;5.32;;;2.50;;
17201;SDS011;8717;53.588;10.176;2023-06-14T08:42:47;3.08;;;2.10;;
17201;SDS011;8717;53.588;10.176;2023-06-14T08:45:17;3.13;;;2.20;;
17201;SDS011;8717;53.588;10.176;2023-06-14T08:47:44;5.18;;;2.08;;
17201;SDS011;8717;53.588;10.176;2023-06-14T08:50:16;3.63;;;2.08;;
17201;SDS011;8717;53.588;10.176;2023-06-14T08:52:46;5.20;;;2.50;;
17201;SDS011;8717;53.588;10.176;2023-06-14T08:55:18;4.15;;;2.42;;
17201;SDS011;8717;53.588;10.176;2023-06-14T08:57:45;3.83;;;2.38;;
17201;SDS011;8717;53.588;10.176;2023-06-14T09:00:14;3.88;;;2.22;;
17201;SDS011;8717;53.588;10.176;2023-06-14T09:02:44;4.13;;;2.10;;
17201;SDS011;8717;53.588;10.176;2023-06-14T09:05:11;4.43;;;2.00;;
17201;SDS011;8717;53.588;10.176;2023-06-14T09:07:38;5.20;;;2.40;;
17201;SDS011;8717;53.588;10.176;2023-06-14T09:10:07;5.85;;;2.50;;
17201;SDS011;8717;53.588;10.176;2023-06-14T09:12:36;3.50;;;2.28;;
17201;SDS011;8717;53.588;10.176;2023-06-14T09:15:03;6.10;;;2.63;;
17201;SDS011;8717;53.588;10.176;2023-06-14T09:17:32;5.45;;;2.38;;
17201;SDS011;8717;53.588;10.176;2023-06-14T09:20:01;3.00;;;2.30;;
17201;SDS011;8717;53.588;10.176;2023-06-14T09:22:31;2.65;;;2.38;;
17201;SDS011;8717;53.588;10.176;2023-06-14T09:24:58;5.35;;;2.33;;
17201;SDS011;8717;53.588;10.176;2023-06-14T09:27:26;2.92;;;2.40;;
17201;SDS011;8717;53.588;10.176;2023-06-14T09:29:53;6.10;;;2.00;;
17201;SDS011;8717;53.588;10.176;2023-06-14T09:32:20;8.23;;;2.30;;
17201;SDS011;8717;53.588;10.176;2023-06-14T09:34:47;5.45;;;2.40;;
17201;SDS011;8717;53.588;10.176;2023-06-14T09:37:27;3.58;;;2.30;;
17201;SDS011;8717;53.588;10.176;2023-06-14T09:39:55;3.45;;;2.70;;
17201;SDS011;8717;53.588;10.176;2023-06-14T09:42:22;3.30;;;2.20;;
17201;SDS011;8717;53.588;10.176;2023-06-14T09:44:50;4.50;;;2.33;;
17201;SDS011;8717;53.588;10.176;2023-06-14T09:47:18;5.28;;;2.67;;
17201;SDS011;8717;53.588;10.176;2023-06-14T09:49:45;3.75;;;2.53;;
17201;SDS011;8717;53.588;10.176;2023-06-14T09:52:14;3.40;;;2.50;;
17201;SDS011;8717;53.588;10.176;2023-06-14T09:54:43;4.45;;;2.38;;
17201;SDS011;8717;53.588;10.176;2023-06-14T09:57:12;4.40;;;2.40;;
17201;SDS011;8717;53.588;10.176;2023-06-14T09:59:40;6.18;;;2.22;;
17201;SDS011;8717;53.588;10.176;2023-06-14T10:02:09;6.32;;;2.40;;
17201;SDS011;8717;53.588;10.176;2023-06-14T10:04:44;3.40;;;2.50;;
17201;SDS011;8717;53.588;10.176;2023-06-14T10:07:18;2.50;;;2.10;;
17201;SDS011;8717;53.588;10.176;2023-06-14T10:09:47;3.67;;;2.35;;
17201;SDS011;8717;53.588;10.176;2023-06-14T10:12:16;5.57;;;2.60;;
17201;SDS011;8717;53.588;10.176;2023-06-14T10:14:46;2.63;;;2.40;;
17201;SDS011;8717;53.588;10.176;2023-06-14T10:17:17;4.65;;;2.90;;
17201;SDS011;8717;53.588;10.176;2023-06-14T10:19:54;3.78;;;2.65;;
17201;SDS011;8717;53.588;10.176;2023-06-14T10:22:26;5.55;;;2.72;;
17201;SDS011;8717;53.588;10.176;2023-06-14T10:24:58;5.35;;;2.63;;
17201;SDS011;8717;53.588;10.176;2023-06-14T10:27:26;4.38;;;2.83;;
17201;SDS011;8717;53.588;10.176;2023-06-14T10:30:01;4.53;;;2.65;;
17201;SDS011;8717;53.588;10.176;2023-06-14T10:32:30;5.00;;;2.70;;
17201;SDS011;8717;53.588;10.176;2023-06-14T10:34:59;3.95;;;2.60;;
17201;SDS011;8717;53.588;10.176;2023-06-14T10:37:27;4.53;;;2.35;;
17201;SDS011;8717;53.588;10.176;2023-06-14T10:39:54;6.13;;;2.78;;
17201;SDS011;8717;53.588;10.176;2023-06-14T10:42:23;4.25;;;2.53;;
17201;SDS011;8717;53.588;10.176;2023-06-14T10:44:54;5.70;;;2.78;;
17201;SDS011;8717;53.588;10.176;2023-06-14T10:47:26;3.50;;;2.90;;
17201;SDS011;8717;53.588;10.176;2023-06-14T10:49:53;5.18;;;2.90;;
17201;SDS011;8717;53.588;10.176;2023-06-14T10:52:23;3.63;;;2.70;;
17201;SDS011;8717;53.588;10.176;2023-06-14T10:54:59;5.43;;;2.95;;
17201;SDS011;8717;53.588;10.176;2023-06-14T10:57:39;3.85;;;2.72;;
17201;SDS011;8717;53.588;10.176;2023-06-14T11:00:08;3.50;;;2.60;;
17201;SDS011;8717;53.588;10.176;2023-06-14T11:03:00;5.15;;;2.72;;
17201;SDS011;8717;53.588;10.176;2023-06-14T11:05:48;4.45;;;2.72;;
17201;SDS011;8717;53.588;10.176;2023-06-14T11:08:27;6.22;;;2.63;;
17201;SDS011;8717;53.588;10.176;2023-06-14T11:11:06;4.88;;;2.78;;
17201;SDS011;8717;53.588;10.176;2023-06-14T11:13:37;3.15;;;2.47;;
17201;SDS011;8717;53.588;10.176;2023-06-14T11:16:09;4.32;;;2.70;;
17201;SDS011;8717;53.588;10.176;2023-06-14T11:18:37;6.18;;;2.55;;
17201;SDS011;8717;53.588;10.176;2023-06-14T11:21:04;8.73;;;2.95;;
17201;SDS011;8717;53.588;10.176;2023-06-14T11:23:30;4.38;;;2.85;;
17201;SDS011;8717;53.588;10.176;2023-06-14T11:25:57;6.63;;;2.70;;
17201;SDS011;8717;53.588;10.176;2023-06-14T11:28:24;4.90;;;2.85;;
17201;SDS011;8717;53.588;10.176;2023-06-14T11:31:00;5.03;;;2.83;;
17201;SDS011;8717;53.588;10.176;2023-06-14T11:33:27;5.25;;;2.65;;
17201;SDS011;8717;53.588;10.176;2023-06-14T11:35:54;4.18;;;2.60;;
17201;SDS011;8717;53.588;10.176;2023-06-14T11:38:21;4.78;;;2.53;;
17201;SDS011;8717;53.588;10.176;2023-06-14T11:40:48;4.47;;;2.38;;
17201;SDS011;8717;53.588;10.176;2023-06-14T11:43:14;5.70;;;2.40;;
17201;SDS011;8717;53.588;10.176;2023-06-14T11:45:42;2.75;;;2.30;;
17201;SDS011;8717;53.588;10.176;2023-06-14T11:48:10;3.35;;;2.47;;
17201;SDS011;8717;53.588;10.176;2023-06-14T11:50:37;6.05;;;2.85;;
17201;SDS011;8717;53.588;10.176;2023-06-14T11:53:04;6.40;;;2.40;;
17201;SDS011;8717;53.588;10.176;2023-06-14T11:55:35;8.95;;;3.35;;
17201;SDS011;8717;53.588;10.176;2023-06-14T11:58:02;6.32;;;2.78;;
17201;SDS011;8717;53.588;10.176;2023-06-14T12:00:29;6.28;;;2.63;;
17201;SDS011;8717;53.588;10.176;2023-06-14T12:02:56;4.07;;;2.50;;
17201;SDS011;8717;53.588;10.176;2023-06-14T12:05:24;2.55;;;2.33;;
17201;SDS011;8717;53.588;10.176;2023-06-14T12:07:57;3.78;;;2.33;;
17201;SDS011;8717;53.588;10.176;2023-06-14T12:10:25;5.80;;;2.90;;
17201;SDS011;8717;53.588;10.176;2023-06-14T12:12:56;5.20;;;3.00;;
17201;SDS011;8717;53.588;10.176;2023-06-14T12:15:24;3.38;;;2.80;;
17201;SDS011;8717;53.588;10.176;2023-06-14T12:17:50;5.57;;;2.72;;
17201;SDS011;8717;53.588;10.176;2023-06-14T12:20:17;4.80;;;2.50;;
17201;SDS011;8717;53.588;10.176;2023-06-14T12:22:50;5.25;;;2.75;;
17201;SDS011;8717;53.588;10.176;2023-06-14T12:25:25;5.18;;;2.92;;
17201;SDS011;8717;53.588;10.176;2023-06-14T12:27:53;5.43;;;2.95;;
17201;SDS011;8717;53.588;10.176;2023-06-14T12:30:20;3.80;;;2.38;;
17201;SDS011;8717;53.588;10.176;2023-06-14T12:32:47;7.63;;;2.38;;
17201;SDS011;8717;53.588;10.176;2023-06-14T12:35:16;4.68;;;2.63;;
17201;SDS011;8717;53.588;10.176;2023-06-14T12:37:43;9.43;;;3.03;;
17201;SDS011;8717;53.588;10.176;2023-06-14T12:40:12;3.05;;;2.30;;
17201;SDS011;8717;53.588;10.176;2023-06-14T12:42:39;3.83;;;2.72;;
17201;SDS011;8717;53.588;10.176;2023-06-14T12:45:07;3.28;;;2.20;;
17201;SDS011;8717;53.588;10.176;2023-06-14T12:47:35;4.22;;;2.50;;
17201;SDS011;8717;53.588;10.176;2023-06-14T12:50:02;5.45;;;2.60;;
17201;SDS011;8717;53.588;10.176;2023-06-14T12:52:29;4.03;;;2.47;;
17201;SDS011;8717;53.588;10.176;2023-06-14T12:54:56;5.38;;;2.55;;
17201;SDS011;8717;53.588;10.176;2023-06-14T12:57:24;4.93;;;2.63;;
17201;SDS011;8717;53.588;10.176;2023-06-14T12:59:50;6.03;;;2.30;;
17201;SDS011;8717;53.588;10.176;2023-06-14T13:02:18;3.53;;;2.22;;
17201;SDS011;8717;53.588;10.176;2023-06-14T13:04:47;4.07;;;2.30;;
17201;SDS011;8717;53.588;10.176;2023-06-14T13:07:14;4.90;;;2.60;;
17201;SDS011;8717;53.588;10.176;2023-06-14T13:09:41;7.65;;;2.30;;
17201;SDS011;8717;53.588;10.176;2023-06-14T13:12:08;5.38;;;2.20;;
17201;SDS011;8717;53.588;10.176;2023-06-14T13:14:38;3.65;;;2.35;;
17201;SDS011;8717;53.588;10.176;2023-06-14T13:17:05;4.80;;;2.30;;
17201;SDS011;8717;53.588;10.176;2023-06-14T13:19:33;5.20;;;2.50;;
17201;SDS011;8717;53.588;10.176;2023-06-14T13:22:00;3.15;;;2.55;;
17201;SDS011;8717;53.588;10.176;2023-06-14T13:24:26;3.30;;;2.42;;
17201;SDS011;8717;53.588;10.176;2023-06-14T13:26:54;5.55;;;2.50;;
17201;SDS011;8717;53.588;10.176;2023-06-14T13:29:22;4.43;;;2.15;;
17201;SDS011;8717;53.588;10.176;2023-06-14T13:31:50;5.53;;;2.38;;
17201;SDS011;8717;53.588;10.176;2023-06-14T13:34:17;4.05;;;2.78;;
17201;SDS011;8717;53.588;10.176;2023-06-14T13:36:44;4.35;;;2.38;;
17201;SDS011;8717;53.588;10.176;2023-06-14T13:39:11;4.50;;;2.58;;
17201;SDS011;8717;53.588;10.176;2023-06-14T13:41:37;5.03;;;2.38;;
17201;SDS011;8717;53.588;10.176;2023-06-14T13:44:04;4.05;;;2.53;;
17201;SDS011;8717;53.588;10.176;2023-06-14T13:46:31;5.15;;;2.42;;
17201;SDS011;8717;53.588;10.176;2023-06-14T13:48:59;3.63;;;2.35;;
17201;SDS011;8717;53.588;10.176;2023-06-14T13:51:27;3.70;;;2.65;;
17201;SDS011;8717;53.588;10.176;2023-06-14T13:53:54;5.88;;;2.55;;
17201;SDS011;8717;53.588;10.176;2023-06-14T13:56:20;5.72;;;2.40;;
17201;SDS011;8717;53.588;10.176;2023-06-14T13:58:49;2.58;;;2.15;;
17201;SDS011;8717;53.588;10.176;2023-06-14T14:01:16;3.17;;;2.38;;
17201;SDS011;8717;53.588;10.176;2023-06-14T14:03:44;2.50;;;2.10;;
17201;SDS011;8717;53.588;10.176;2023-06-14T14:06:12;5.05;;;2.45;;
17201;SDS011;8717;53.588;10.176;2023-06-14T14:08:39;3.75;;;2.25;;
17201;SDS011;8717;53.588;10.176;2023-06-14T14:11:06;4.53;;;2.72;;
17201;SDS011;8717;53.588;10.176;2023-06-14T14:13:33;3.60;;;2.30;;
17201;SDS011;8717;53.588;10.176;2023-06-14T14:16:01;4.90;;;2.35;;
17201;SDS011;8717;53.588;10.176;2023-06-14T14:18:28;4.00;;;2.20;;
17201;SDS011;8717;53.588;10.176;2023-06-14T14:20:55;4.25;;;2.20;;
17201;SDS011;8717;53.588;10.176;2023-06-14T14:23:24;3.67;;;2.58;;
17201;SDS011;8717;53.588;10.176;2023-06-14T14:25:51;4.82;;;2.28;;
17201;SDS011;8717;53.588;10.176;2023-06-14T14:28:17;5.57;;;2.65;;
17201;SDS011;8717;53.588;10.176;2023-06-14T14:30:45;5.68;;;2.40;;
17201;SDS011;8717;53.588;10.176;2023-06-14T14:33:12;3.67;;;2.30;;
17201;SDS011;8717;53.588;10.176;2023-06-14T14:35:41;6.05;;;2.55;;
17201;SDS011;8717;53.588;10.176;2023-06-14T14:38:08;5.38;;;2.28;;
17201;SDS011;8717;53.588;10.176;2023-06-14T14:40:36;6.90;;;2.78;;
17201;SDS011;8717;53.588;10.176;2023-06-14T14:43:02;4.93;;;2.60;;
17201;SDS011;8717;53.588;10.176;2023-06-14T14:45:30;3.25;;;2.15;;
17201;SDS011;8717;53.588;10.176;2023-06-14T14:47:56;3.25;;;2.30;;
17201;SDS011;8717;53.588;10.176;2023-06-14T14:50:24;4.63;;;2.60;;
17201;SDS011;8717;53.588;10.176;2023-06-14T14:52:51;8.82;;;2.70;;
17201;SDS011;8717;53.588;10.176;2023-06-14T14:55:18;5.35;;;2.53;;